createdAt,value
2023-04-24T00:01:55.134Z,-86
2023-04-24T00:04:21.949Z,-87
2023-04-24T00:06:52.630Z,-87
2023-04-24T00:09:19.117Z,-87
2023-04-24T00:11:45.961Z,-86
2023-04-24T00:14:12.751Z,-86
2023-04-24T00:16:39.265Z,-87
2023-04-24T00:19:07.121Z,-86
2023-04-24T00:21:33.898Z,-87
2023-04-24T00:24:01.356Z,-84
2023-04-24T00:26:27.902Z,-85
2023-04-24T00:28:54.412Z,-85
2023-04-24T00:31:20.928Z,-85
2023-04-24T00:33:47.615Z,-85
2023-04-24T00:36:14.734Z,-86
2023-04-24T00:38:41.597Z,-84
2023-04-24T00:41:08.898Z,-85
2023-04-24T00:43:35.970Z,-86
2023-04-24T00:46:03.001Z,-86
2023-04-24T00:48:29.920Z,-85
2023-04-24T00:50:56.539Z,-86
2023-04-24T00:53:23.101Z,-86
2023-04-24T00:55:49.811Z,-84
2023-04-24T00:58:16.416Z,-85
2023-04-24T01:00:43.057Z,-85
2023-04-24T01:03:09.949Z,-86
2023-04-24T01:05:36.659Z,-86
2023-04-24T01:08:03.991Z,-83
2023-04-24T01:10:31.618Z,-85
2023-04-24T01:12:58.847Z,-84
2023-04-24T01:15:25.393Z,-85
2023-04-24T01:17:52.208Z,-86
2023-04-24T01:20:18.854Z,-86
2023-04-24T01:22:45.453Z,-84
2023-04-24T01:25:11.939Z,-85
2023-04-24T01:27:38.520Z,-86
2023-04-24T01:30:05.583Z,-85
2023-04-24T01:32:32.246Z,-85
2023-04-24T01:34:59.108Z,-84
2023-04-24T01:37:25.795Z,-87
2023-04-24T01:39:52.352Z,-85
2023-04-24T01:42:18.977Z,-85
2023-04-24T01:44:45.875Z,-85
2023-04-24T01:47:12.512Z,-85
2023-04-24T01:49:39.850Z,-85
2023-04-24T01:52:06.453Z,-85
2023-04-24T01:54:32.944Z,-85
2023-04-24T01:57:00.058Z,-85
2023-04-24T01:59:26.890Z,-86
2023-04-24T02:01:53.391Z,-86
2023-04-24T02:04:20.050Z,-86
2023-04-24T02:06:46.940Z,-85
2023-04-24T02:09:13.496Z,-86
2023-04-24T02:11:40.004Z,-87
2023-04-24T02:14:06.540Z,-84
2023-04-24T02:16:34.173Z,-86
2023-04-24T02:19:00.713Z,-84
2023-04-24T02:21:28.535Z,-86
2023-04-24T02:23:55.193Z,-85
2023-04-24T02:26:21.796Z,-85
2023-04-24T02:28:48.278Z,-85
2023-04-24T02:31:14.767Z,-85
2023-04-24T02:33:41.615Z,-86
2023-04-24T02:36:08.122Z,-86
2023-04-24T02:38:34.637Z,-86
2023-04-24T02:41:01.914Z,-85
2023-04-24T02:43:28.563Z,-84
2023-04-24T02:45:55.073Z,-83
2023-04-24T02:48:23.078Z,-86
2023-04-24T02:50:49.563Z,-85
2023-04-24T02:53:16.074Z,-85
2023-04-24T02:55:42.592Z,-83
2023-04-24T02:58:09.123Z,-83
2023-04-24T03:00:35.691Z,-85
2023-04-24T03:03:04.890Z,-84
2023-04-24T03:05:32.145Z,-84
2023-04-24T03:07:58.679Z,-84
2023-04-24T03:10:25.639Z,-85
2023-04-24T03:12:52.188Z,-85
2023-04-24T03:15:18.822Z,-86
2023-04-24T03:17:46.151Z,-84
2023-04-24T03:20:12.814Z,-85
2023-04-24T03:22:39.664Z,-83
2023-04-24T03:25:06.519Z,-85
2023-04-24T03:27:33.113Z,-85
2023-04-24T03:29:59.631Z,-86
2023-04-24T03:32:26.181Z,-85
2023-04-24T03:34:52.749Z,-85
2023-04-24T03:37:19.286Z,-85
2023-04-24T03:39:45.984Z,-85
2023-04-24T03:42:13.060Z,-85
2023-04-24T03:44:39.600Z,-84
2023-04-24T03:47:06.172Z,-84
2023-04-24T03:49:33.130Z,-83
2023-04-24T03:51:59.602Z,-84
2023-04-24T03:54:27.018Z,-84
2023-04-24T03:56:53.556Z,-83
2023-04-24T03:59:20.053Z,-84
2023-04-24T04:01:47.069Z,-84
2023-04-24T04:04:13.841Z,-84
2023-04-24T04:06:41.005Z,-85
2023-04-24T04:09:08.345Z,-84
2023-04-24T04:11:35.156Z,-84
2023-04-24T04:14:01.714Z,-84
2023-04-24T04:16:28.296Z,-84
2023-04-24T04:18:54.824Z,-85
2023-04-24T04:21:21.799Z,-85
2023-04-24T04:23:48.280Z,-85
2023-04-24T04:26:14.822Z,-83
2023-04-24T04:28:41.965Z,-84
2023-04-24T04:31:08.938Z,-82
2023-04-24T04:33:37.205Z,-83
2023-04-24T04:36:04.898Z,-83
2023-04-24T04:38:31.439Z,-83
2023-04-24T04:40:58.285Z,-82
2023-04-24T04:43:25.387Z,-82
2023-04-24T04:45:52.600Z,-82
2023-04-24T04:48:20.181Z,-82
2023-04-24T04:50:46.697Z,-83
2023-04-24T04:53:13.381Z,-83
2023-04-24T04:55:39.974Z,-82
2023-04-24T04:58:06.701Z,-81
2023-04-24T05:00:36.856Z,-83
2023-04-24T05:03:19.078Z,-82
2023-04-24T05:05:47.275Z,-83
2023-04-24T05:08:25.755Z,-82
2023-04-24T05:10:53.399Z,-83
2023-04-24T05:13:25.564Z,-83
2023-04-24T05:15:58.631Z,-80
2023-04-24T05:18:25.127Z,-82
2023-04-24T05:20:51.643Z,-81
2023-04-24T05:23:20.418Z,-82
2023-04-24T05:25:49.193Z,-81
2023-04-24T05:28:16.551Z,-81
2023-04-24T05:30:43.120Z,-82
2023-04-24T05:33:10.268Z,-81
2023-04-24T05:35:36.835Z,-82
2023-04-24T05:38:03.299Z,-81
2023-04-24T05:40:29.836Z,-83
2023-04-24T05:42:56.416Z,-81
2023-04-24T05:45:22.924Z,-83
2023-04-24T05:47:49.590Z,-83
2023-04-24T05:50:16.356Z,-83
2023-04-24T05:52:42.820Z,-83
2023-04-24T05:55:09.414Z,-82
2023-04-24T05:57:36.016Z,-80
2023-04-24T06:00:02.531Z,-84
2023-04-24T06:02:34.023Z,-81
2023-04-24T06:05:00.871Z,-80
2023-04-24T06:07:27.701Z,-82
2023-04-24T06:09:54.238Z,-81
2023-04-24T06:12:20.776Z,-80
2023-04-24T06:14:47.327Z,-82
2023-04-24T06:17:14.606Z,-81
2023-04-24T06:19:41.805Z,-80
2023-04-24T06:22:10.892Z,-82
2023-04-24T06:24:37.727Z,-82
2023-04-24T06:27:04.196Z,-80
2023-04-24T06:29:30.973Z,-80
2023-04-24T06:31:57.513Z,-82
2023-04-24T06:34:24.191Z,-82
2023-04-24T06:36:50.757Z,-81
2023-04-24T06:39:17.259Z,-82
2023-04-24T06:41:43.759Z,-82
2023-04-24T06:44:10.307Z,-83
2023-04-24T06:46:37.463Z,-83
2023-04-24T06:49:04.591Z,-82
2023-04-24T06:51:31.749Z,-83
2023-04-24T06:53:58.550Z,-83
2023-04-24T06:56:25.175Z,-82
2023-04-24T06:58:52.534Z,-83
2023-04-24T07:01:19.258Z,-84
2023-04-24T07:03:46.052Z,-82
2023-04-24T07:06:13.758Z,-82
2023-04-24T07:08:40.337Z,-81
2023-04-24T07:11:06.893Z,-81
2023-04-24T07:13:33.492Z,-81
2023-04-24T07:16:02.293Z,-81
2023-04-24T07:18:28.864Z,-82
2023-04-24T07:20:55.375Z,-82
2023-04-24T07:23:21.888Z,-81
2023-04-24T07:25:48.396Z,-82
2023-04-24T07:28:14.911Z,-81
2023-04-24T07:30:41.428Z,-82
2023-04-24T07:33:08.129Z,-83
2023-04-24T07:35:35.104Z,-80
2023-04-24T07:38:01.704Z,-82
2023-04-24T07:40:28.241Z,-83
2023-04-24T07:42:54.721Z,-82
2023-04-24T07:45:21.614Z,-80
2023-04-24T07:47:48.287Z,-82
2023-04-24T07:50:14.823Z,-81
2023-04-24T07:52:41.322Z,-81
2023-04-24T07:55:08.256Z,-82
2023-04-24T07:57:34.984Z,-82
2023-04-24T08:00:01.497Z,-81
2023-04-24T08:02:30.652Z,-83
2023-04-24T08:04:59.477Z,-83
2023-04-24T08:07:27.061Z,-82
2023-04-24T08:09:53.563Z,-82
2023-04-24T08:12:20.077Z,-83
2023-04-24T08:14:47.383Z,-81
2023-04-24T08:17:13.881Z,-83
2023-04-24T08:19:44.958Z,-85
2023-04-24T08:22:11.742Z,-83
2023-04-24T08:24:40.500Z,-82
2023-04-24T08:27:07.000Z,-83
2023-04-24T08:29:33.937Z,-82
2023-04-24T08:32:00.548Z,-83
2023-04-24T08:34:27.126Z,-82
2023-04-24T08:36:53.654Z,-82
2023-04-24T08:39:20.205Z,-80
2023-04-24T08:41:47.038Z,-83
2023-04-24T08:44:15.485Z,-83
2023-04-24T08:46:42.418Z,-82
2023-04-24T08:49:09.029Z,-83
2023-04-24T08:51:37.761Z,-83
2023-04-24T08:54:05.109Z,-81
2023-04-24T08:56:33.157Z,-82
2023-04-24T08:58:59.688Z,-83
2023-04-24T09:01:26.346Z,-81
2023-04-24T09:03:54.536Z,-82
2023-04-24T09:06:23.015Z,-83
2023-04-24T09:08:51.102Z,-81
2023-04-24T09:11:17.995Z,-81
2023-04-24T09:13:44.776Z,-83
2023-04-24T09:16:11.445Z,-82
2023-04-24T09:18:38.009Z,-82
2023-04-24T09:21:07.813Z,-82
2023-04-24T09:23:34.461Z,-81
2023-04-24T09:26:01.721Z,-82
2023-04-24T09:28:31.937Z,-81
2023-04-24T09:31:05.544Z,-81
2023-04-24T09:33:34.790Z,-83
2023-04-24T09:36:02.461Z,-82
2023-04-24T09:38:39.159Z,-82
2023-04-24T09:41:06.876Z,-82
2023-04-24T09:43:33.733Z,-82
2023-04-24T09:46:05.451Z,-82
2023-04-24T09:48:35.470Z,-81
2023-04-24T09:51:02.621Z,-81
2023-04-24T09:53:29.495Z,-82
2023-04-24T09:55:56.471Z,-81
2023-04-24T09:58:27.575Z,-82
2023-04-24T10:00:59.611Z,-81
2023-04-24T10:03:29.397Z,-84
2023-04-24T10:05:59.223Z,-82
2023-04-24T10:08:26.264Z,-80
2023-04-24T10:10:53.470Z,-82
2023-04-24T10:13:20.430Z,-84
2023-04-24T10:15:48.596Z,-85
2023-04-24T10:18:16.693Z,-85
2023-04-24T10:20:43.261Z,-85
2023-04-24T10:23:10.085Z,-86
2023-04-24T10:25:38.049Z,-83
2023-04-24T10:28:05.033Z,-85
2023-04-24T10:30:36.159Z,-84
2023-04-24T10:33:06.550Z,-84
2023-04-24T10:35:35.965Z,-83
2023-04-24T10:38:22.744Z,-84
2023-04-24T10:40:49.516Z,-83
2023-04-24T10:43:18.974Z,-84
2023-04-24T10:46:01.755Z,-83
2023-04-24T10:48:28.352Z,-85
2023-04-24T10:50:54.958Z,-84
2023-04-24T10:53:24.407Z,-85
2023-04-24T10:55:51.992Z,-86
2023-04-24T10:58:23.176Z,-84
2023-04-24T11:00:59.635Z,-85
2023-04-24T11:03:30.656Z,-82
2023-04-24T11:06:05.169Z,-82
2023-04-24T11:08:39.550Z,-85
2023-04-24T11:11:09.090Z,-85
2023-04-24T11:13:54.564Z,-84
2023-04-24T11:16:23.273Z,-81
2023-04-24T11:18:55.439Z,-86
2023-04-24T11:21:23.425Z,-86
2023-04-24T11:23:50.020Z,-85
2023-04-24T11:26:20.542Z,-85
2023-04-24T11:28:47.606Z,-86
2023-04-24T11:31:33.007Z,-85
2023-04-24T11:34:06.396Z,-81
2023-04-24T11:36:32.920Z,-86
2023-04-24T11:38:59.521Z,-82
2023-04-24T11:41:26.916Z,-84
2023-04-24T11:43:54.270Z,-85
2023-04-24T11:46:22.102Z,-82
2023-04-24T11:48:48.729Z,-86
2023-04-24T11:51:15.503Z,-84
2023-04-24T11:53:42.681Z,-82
2023-04-24T11:56:10.647Z,-83
2023-04-24T11:58:37.784Z,-83
2023-04-24T12:01:04.630Z,-83
2023-04-24T12:03:31.445Z,-85
2023-04-24T12:06:11.124Z,-84
2023-04-24T12:08:38.579Z,-87
2023-04-24T12:11:06.926Z,-80
2023-04-24T12:13:34.024Z,-84
2023-04-24T12:16:01.744Z,-83
2023-04-24T12:18:28.255Z,-82
2023-04-24T12:23:34.652Z,-81
2023-04-24T12:26:02.598Z,-80
2023-04-24T12:28:36.233Z,-80
2023-04-24T12:31:02.879Z,-81
2023-04-24T12:33:33.554Z,-84
2023-04-24T12:36:00.200Z,-83
2023-04-24T12:38:27.589Z,-84
2023-04-24T12:41:07.144Z,-83
2023-04-24T12:43:33.770Z,-84
2023-04-24T12:46:00.324Z,-84
2023-04-24T12:48:27.647Z,-84
2023-04-24T12:50:54.177Z,-86
2023-04-24T12:53:21.262Z,-84
2023-04-24T12:55:53.511Z,-80
2023-04-24T12:58:22.955Z,-84
2023-04-24T13:00:49.667Z,-84
2023-04-24T13:03:16.509Z,-83
2023-04-24T13:05:43.946Z,-84
2023-04-24T13:08:10.648Z,-84
2023-04-24T13:10:37.189Z,-82
2023-04-24T13:13:04.516Z,-82
2023-04-24T13:15:31.024Z,-85
2023-04-24T13:17:57.669Z,-81
2023-04-24T13:20:24.219Z,-80
2023-04-24T13:22:50.707Z,-84
2023-04-24T13:25:18.273Z,-82
2023-04-24T13:27:44.927Z,-85
2023-04-24T13:30:11.775Z,-86
2023-04-24T13:32:38.364Z,-84
2023-04-24T13:35:05.309Z,-83
2023-04-24T13:37:32.240Z,-85
2023-04-24T13:39:58.822Z,-84
2023-04-24T13:42:25.368Z,-84
2023-04-24T13:44:52.373Z,-83
2023-04-24T13:47:18.971Z,-87
2023-04-24T13:49:45.644Z,-83
2023-04-24T13:52:12.739Z,-83
2023-04-24T13:54:39.231Z,-83
2023-04-24T13:57:05.932Z,-82
2023-04-24T13:59:32.798Z,-82
2023-04-24T14:01:59.726Z,-84
2023-04-24T14:04:26.708Z,-84
2023-04-24T14:06:53.753Z,-85
2023-04-24T14:09:20.322Z,-83
2023-04-24T14:11:46.909Z,-83
2023-04-24T14:14:13.432Z,-83
2023-04-24T14:16:40.830Z,-83
2023-04-24T14:19:07.576Z,-83
2023-04-24T14:21:34.380Z,-83
2023-04-24T14:24:01.773Z,-82
2023-04-24T14:26:28.384Z,-82
2023-04-24T14:29:03.834Z,-84
2023-04-24T14:31:37.818Z,-84
2023-04-24T14:34:04.437Z,-83
2023-04-24T14:36:32.747Z,-82
2023-04-24T14:38:59.322Z,-82
2023-04-24T14:41:25.843Z,-81
2023-04-24T14:43:52.475Z,-81
2023-04-24T14:46:19.485Z,-81
2023-04-24T14:48:46.210Z,-81
2023-04-24T14:51:13.319Z,-83
2023-04-24T14:53:39.864Z,-80
2023-04-24T14:56:06.629Z,-83
2023-04-24T14:58:33.819Z,-84
2023-04-24T15:01:00.517Z,-82
2023-04-24T15:03:28.620Z,-84
2023-04-24T15:05:55.441Z,-84
2023-04-24T15:08:22.090Z,-84
2023-04-24T15:10:49.277Z,-83
2023-04-24T15:13:16.851Z,-83
2023-04-24T15:15:43.571Z,-84
2023-04-24T15:18:12.730Z,-84
2023-04-24T15:20:45.525Z,-82
2023-04-24T15:23:12.176Z,-84
2023-04-24T15:25:40.076Z,-82
2023-04-24T15:28:07.107Z,-83
2023-04-24T15:30:33.903Z,-83
2023-04-24T15:33:01.344Z,-83
2023-04-24T15:35:28.059Z,-81
2023-04-24T15:37:54.753Z,-81
2023-04-24T15:40:21.648Z,-83
2023-04-24T15:42:48.694Z,-82
2023-04-24T15:45:15.356Z,-83
2023-04-24T15:47:42.274Z,-84
2023-04-24T15:50:14.429Z,-82
2023-04-24T15:52:41.433Z,-83
2023-04-24T15:55:08.316Z,-80
2023-04-24T15:57:34.950Z,-84
2023-04-24T16:00:01.665Z,-83
2023-04-24T16:02:28.723Z,-82
2023-04-24T16:04:55.456Z,-83
2023-04-24T16:07:22.126Z,-81
2023-04-24T16:09:48.727Z,-83
2023-04-24T16:12:15.503Z,-84
2023-04-24T16:14:42.230Z,-84
2023-04-24T16:17:09.129Z,-82
2023-04-24T16:19:35.896Z,-83
2023-04-24T16:22:03.415Z,-83
2023-04-24T16:24:30.525Z,-83
2023-04-24T16:26:57.280Z,-84
2023-04-24T16:29:24.005Z,-83
2023-04-24T16:31:50.953Z,-83
2023-04-24T16:34:17.699Z,-84
2023-04-24T16:36:44.484Z,-82
2023-04-24T16:39:11.202Z,-84
2023-04-24T16:41:40.489Z,-84
2023-04-24T16:44:07.222Z,-85
2023-04-24T16:46:34.127Z,-85
2023-04-24T16:49:00.985Z,-88
2023-04-24T16:51:28.931Z,-83
2023-04-24T16:53:55.853Z,-84
2023-04-24T16:56:25.059Z,-85
2023-04-24T16:58:51.856Z,-86
2023-04-24T17:01:18.503Z,-85
2023-04-24T17:03:45.859Z,-84
2023-04-24T17:06:12.885Z,-85
2023-04-24T17:08:39.529Z,-85
2023-04-24T17:11:06.060Z,-85
2023-04-24T17:13:32.697Z,-84
2023-04-24T17:15:59.287Z,-85
2023-04-24T17:18:26.013Z,-85
2023-04-24T17:20:52.632Z,-85
2023-04-24T17:23:20.572Z,-85
2023-04-24T17:25:47.135Z,-86
2023-04-24T17:28:23.822Z,-86
2023-04-24T17:30:50.509Z,-86
2023-04-24T17:33:17.225Z,-87
2023-04-24T17:35:43.800Z,-86
2023-04-24T17:38:10.479Z,-85
2023-04-24T17:40:38.312Z,-86
2023-04-24T17:43:05.023Z,-87
2023-04-24T17:45:32.326Z,-87
2023-04-24T17:47:58.898Z,-87
2023-04-24T17:50:25.526Z,-86
2023-04-24T17:52:52.095Z,-86
2023-04-24T17:55:18.595Z,-86
2023-04-24T17:57:45.173Z,-85
2023-04-24T18:00:12.053Z,-86
2023-04-24T18:02:39.117Z,-85
2023-04-24T18:05:05.775Z,-85
2023-04-24T18:07:32.317Z,-86
2023-04-24T18:09:58.955Z,-85
2023-04-24T18:12:25.672Z,-84
2023-04-24T18:14:59.798Z,-85
2023-04-24T18:17:33.280Z,-86
2023-04-24T18:19:59.814Z,-86
2023-04-24T18:22:26.454Z,-86
2023-04-24T18:24:53.015Z,-86
2023-04-24T18:27:19.560Z,-86
2023-04-24T18:29:46.093Z,-85
2023-04-24T18:32:12.635Z,-85
2023-04-24T18:34:39.239Z,-86
2023-04-24T18:37:05.740Z,-86
2023-04-24T18:39:32.280Z,-86
2023-04-24T18:41:59.023Z,-82
2023-04-24T18:44:26.884Z,-84
2023-04-24T18:46:53.481Z,-86
2023-04-24T18:49:20.113Z,-86
2023-04-24T18:51:54.024Z,-87
2023-04-24T18:54:21.058Z,-86
2023-04-24T18:56:47.644Z,-85
2023-04-24T18:59:14.229Z,-84
2023-04-24T19:01:40.900Z,-86
2023-04-24T19:04:07.540Z,-85
2023-04-24T19:06:34.093Z,-85
2023-04-24T19:09:00.634Z,-86
2023-04-24T19:11:27.257Z,-85
2023-04-24T19:13:53.973Z,-86
2023-04-24T19:16:20.622Z,-86
2023-04-24T19:18:47.566Z,-86
2023-04-24T19:21:14.578Z,-85
2023-04-24T19:23:41.424Z,-83
2023-04-24T19:26:07.972Z,-84
2023-04-24T19:28:34.482Z,-83
2023-04-24T19:31:01.070Z,-83
2023-04-24T19:33:27.931Z,-87
2023-04-24T19:35:54.429Z,-83
2023-04-24T19:38:20.982Z,-84
2023-04-24T19:40:47.576Z,-83
2023-04-24T19:43:14.065Z,-84
2023-04-24T19:45:40.845Z,-85
2023-04-24T19:48:07.795Z,-83
2023-04-24T19:50:35.085Z,-83
2023-04-24T19:53:01.605Z,-83
2023-04-24T19:55:28.169Z,-84
2023-04-24T19:57:57.473Z,-86
2023-04-24T20:00:24.057Z,-87
2023-04-24T20:02:51.152Z,-84
2023-04-24T20:05:17.918Z,-87
2023-04-24T20:07:46.192Z,-87
2023-04-24T20:10:12.705Z,-88
2023-04-24T20:12:39.289Z,-87
2023-04-24T20:15:06.499Z,-87
2023-04-24T20:17:33.032Z,-84
2023-04-24T20:19:59.740Z,-85
2023-04-24T20:22:26.449Z,-85
2023-04-24T20:24:52.978Z,-84
2023-04-24T20:27:20.424Z,-84
2023-04-24T20:29:46.930Z,-84
2023-04-24T20:32:13.529Z,-83
2023-04-24T20:34:40.087Z,-83
2023-04-24T20:37:06.812Z,-82
2023-04-24T20:39:33.388Z,-84
2023-04-24T20:42:01.109Z,-81
2023-04-24T20:44:27.983Z,-83
2023-04-24T20:46:54.521Z,-85
2023-04-24T20:49:21.151Z,-84
2023-04-24T20:51:47.751Z,-85
2023-04-24T20:54:14.271Z,-85
2023-04-24T20:56:40.790Z,-85
2023-04-24T20:59:09.510Z,-85
2023-04-24T21:01:36.115Z,-85
2023-04-24T21:04:02.688Z,-85
2023-04-24T21:06:29.270Z,-84
2023-04-24T21:08:55.918Z,-85
2023-04-24T21:11:22.654Z,-84
2023-04-24T21:13:49.376Z,-84
2023-04-24T21:16:16.089Z,-84
2023-04-24T21:18:42.688Z,-84
2023-04-24T21:21:09.513Z,-86
2023-04-24T21:23:36.294Z,-84
2023-04-24T21:26:05.643Z,-85
2023-04-24T21:28:32.576Z,-85
2023-04-24T21:30:59.164Z,-85
2023-04-24T21:33:25.793Z,-86
2023-04-24T21:35:52.734Z,-84
2023-04-24T21:38:24.659Z,-86
2023-04-24T21:40:51.927Z,-83
2023-04-24T21:43:19.654Z,-85
2023-04-24T21:45:47.162Z,-85
2023-04-24T21:48:14.178Z,-85
2023-04-24T21:50:40.966Z,-85
2023-04-24T21:53:07.573Z,-85
2023-04-24T21:55:34.175Z,-85
2023-04-24T21:58:01.181Z,-85
2023-04-24T22:00:27.721Z,-85
2023-04-24T22:02:54.355Z,-85
2023-04-24T22:05:21.042Z,-84
2023-04-24T22:07:50.564Z,-85
2023-04-24T22:10:17.473Z,-85
2023-04-24T22:12:44.128Z,-85
2023-04-24T22:15:13.071Z,-85
2023-04-24T22:17:40.242Z,-84
2023-04-24T22:20:07.590Z,-84
2023-04-24T22:22:34.841Z,-85
2023-04-24T22:25:01.413Z,-84
2023-04-24T22:27:27.932Z,-85
2023-04-24T22:29:54.449Z,-85
2023-04-24T22:32:21.250Z,-85
2023-04-24T22:34:47.755Z,-85
2023-04-24T22:37:14.351Z,-84
2023-04-24T22:39:41.226Z,-84
2023-04-24T22:42:07.723Z,-84
2023-04-24T22:44:34.249Z,-85
2023-04-24T22:47:00.861Z,-85
2023-04-24T22:49:27.584Z,-85
2023-04-24T22:51:57.883Z,-85
2023-04-24T22:54:24.454Z,-84
2023-04-24T22:56:52.836Z,-83
2023-04-24T22:59:19.388Z,-83
2023-04-24T23:01:45.953Z,-84
2023-04-24T23:04:12.711Z,-85
2023-04-24T23:06:39.364Z,-85
2023-04-24T23:09:06.240Z,-85
2023-04-24T23:11:35.251Z,-86
2023-04-24T23:14:01.873Z,-85
2023-04-24T23:16:31.263Z,-85
2023-04-24T23:18:58.160Z,-85
2023-04-24T23:21:24.678Z,-85
2023-04-24T23:23:52.922Z,-86
2023-04-24T23:26:19.901Z,-84
2023-04-24T23:28:46.416Z,-86
2023-04-24T23:31:12.999Z,-84
2023-04-24T23:33:39.483Z,-85
2023-04-24T23:36:06.797Z,-84
2023-04-24T23:38:43.171Z,-85
2023-04-24T23:41:16.052Z,-84
2023-04-24T23:43:42.585Z,-84
2023-04-24T23:46:09.174Z,-84
2023-04-24T23:48:37.179Z,-84
2023-04-24T23:51:03.756Z,-84
2023-04-24T23:53:30.463Z,-84
2023-04-24T23:55:57.258Z,-84
2023-04-24T23:58:24.105Z,-83
